UAE175 OMDB-ULLI
Flight info
| Callsign | UAE175 |
|---|---|
| Flight time | N/A |
| Altitude | 37000 |
| Route | ANVIX L223 TARDI N629 IVAKU G216 KC Z302 NH G326 ZB G325 REGET J139 LAKRA/N0483F380 M881 LAJAK L509 TAPIS M875 AMDAR/K0893F380 M875 MILSO M161 DENUD T784 GITEK/K0917F400 T784 ROKUR P164 PINOK N50 GENPA GENPA1V |
| Aircraft | A359/H-SDE2E3GHIJ3J4J5LM1ORWXY/LB1D1 |
Departure
| Time | 2026-04-22 05:14 |
|---|---|
| Airport | Dubai International Airport (OMDB) |
Arrival
| Time | N/A |
|---|---|
| Airport | Pulkovo Airport (ULLI) |
| Time | Latitude | Longitude | Altitude | Speed | Heading |
|---|---|---|---|---|---|
| 2026-04-22 04:15 | 25.24560 | 55.36962 | 28 ft | 0 kts | 167° |
| 2026-04-22 05:02 | 25.24567 | 55.36960 | 30 ft | 4 kts | 167° |
| 2026-04-22 05:02 | 25.24585 | 55.36956 | 28 ft | 4 kts | 167° |
| 2026-04-22 05:02 | 25.24611 | 55.36949 | 27 ft | 4 kts | 167° |
| 2026-04-22 05:02 | 25.24637 | 55.36941 | 27 ft | 4 kts | 157° |
| 2026-04-22 05:03 | 25.24661 | 55.36927 | 26 ft | 4 kts | 141° |
| 2026-04-22 05:03 | 25.24682 | 55.36898 | 27 ft | 4 kts | 101° |
| 2026-04-22 05:03 | 25.24683 | 55.36883 | 26 ft | 1 kts | 76° |
| 2026-04-22 05:03 | 25.24682 | 55.36878 | 26 ft | 0 kts | 76° |
| 2026-04-22 05:07 | 25.24683 | 55.36882 | 26 ft | 2 kts | 76° |
| 2026-04-22 05:07 | 25.24690 | 55.36910 | 26 ft | 6 kts | 75° |
| 2026-04-22 05:07 | 25.24686 | 55.36955 | 27 ft | 6 kts | 109° |
| 2026-04-22 05:08 | 25.24665 | 55.37002 | 28 ft | 7 kts | 120° |
| 2026-04-22 05:08 | 25.24637 | 55.37052 | 28 ft | 8 kts | 121° |
| 2026-04-22 05:08 | 25.24606 | 55.37108 | 28 ft | 9 kts | 121° |
| 2026-04-22 05:08 | 25.24572 | 55.37170 | 28 ft | 10 kts | 122° |
| 2026-04-22 05:09 | 25.24534 | 55.37237 | 28 ft | 12 kts | 122° |
| 2026-04-22 05:09 | 25.24482 | 55.37329 | 28 ft | 17 kts | 122° |
| 2026-04-22 05:09 | 25.24414 | 55.37451 | 28 ft | 21 kts | 121° |
| 2026-04-22 05:09 | 25.24334 | 55.37592 | 28 ft | 22 kts | 122° |
| 2026-04-22 05:10 | 25.24284 | 55.37680 | 28 ft | 10 kts | 122° |
| 2026-04-22 05:10 | 25.24260 | 55.37748 | 28 ft | 9 kts | 84° |
| 2026-04-22 05:10 | 25.24300 | 55.37799 | 28 ft | 9 kts | 40° |
| 2026-04-22 05:10 | 25.24352 | 55.37838 | 28 ft | 9 kts | 33° |
| 2026-04-22 05:11 | 25.24408 | 55.37879 | 29 ft | 10 kts | 35° |
| 2026-04-22 05:11 | 25.24468 | 55.37925 | 28 ft | 11 kts | 34° |
| 2026-04-22 05:11 | 25.24531 | 55.37973 | 28 ft | 11 kts | 35° |
| 2026-04-22 05:11 | 25.24598 | 55.38023 | 28 ft | 12 kts | 33° |
| 2026-04-22 05:12 | 25.24669 | 55.38073 | 28 ft | 12 kts | 31° |
| 2026-04-22 05:12 | 25.24738 | 55.38107 | 28 ft | 8 kts | 360° |
| 2026-04-22 05:12 | 25.24777 | 55.38077 | 28 ft | 7 kts | 306° |
| 2026-04-22 05:12 | 25.24812 | 55.38014 | 28 ft | 16 kts | 301° |
| 2026-04-22 05:13 | 25.24960 | 55.37748 | 28 ft | 70 kts | 301° |
| 2026-04-22 05:13 | 25.25310 | 55.37117 | 28 ft | 122 kts | 301° |
| 2026-04-22 05:13 | 25.25838 | 55.36173 | 30 ft | 166 kts | 302° |
| 2026-04-22 05:13 | 25.26439 | 55.35065 | 532 ft | 164 kts | 303° |
| 2026-04-22 05:14 | 25.27005 | 55.33970 | 986 ft | 164 kts | 302° |
| 2026-04-22 05:14 | 25.27567 | 55.32820 | 1382 ft | 174 kts | 300° |
| 2026-04-22 05:14 | 25.28136 | 55.31609 | 1804 ft | 183 kts | 300° |
| 2026-04-22 05:14 | 25.28787 | 55.30367 | 2242 ft | 190 kts | 302° |
| 2026-04-22 05:15 | 25.29437 | 55.29066 | 2558 ft | 198 kts | 292° |
| 2026-04-22 05:15 | 25.29461 | 55.27552 | 2635 ft | 205 kts | 245° |
| 2026-04-22 05:15 | 25.28727 | 55.26195 | 2806 ft | 211 kts | 231° |
| 2026-04-22 05:15 | 25.27896 | 55.24811 | 2972 ft | 226 kts | 234° |
| 2026-04-22 05:16 | 25.27087 | 55.23272 | 3228 ft | 236 kts | 238° |
| 2026-04-22 05:16 | 25.26318 | 55.21650 | 3627 ft | 238 kts | 240° |
| 2026-04-22 05:16 | 25.25581 | 55.20015 | 4143 ft | 236 kts | 240° |
| 2026-04-22 05:16 | 25.24818 | 55.18420 | 4662 ft | 232 kts | 232° |
| 2026-04-22 05:17 | 25.23682 | 55.17197 | 5112 ft | 228 kts | 207° |
| 2026-04-22 05:17 | 25.22170 | 55.16703 | 5388 ft | 235 kts | 182° |
| 2026-04-22 05:17 | 25.20520 | 55.16777 | 5777 ft | 239 kts | 173° |
| 2026-04-22 05:17 | 25.18928 | 55.17351 | 6131 ft | 246 kts | 150° |
| 2026-04-22 05:18 | 25.16769 | 55.20466 | 6563 ft | 273 kts | 120° |
| 2026-04-22 05:18 | 25.15901 | 55.22355 | 6918 ft | 278 kts | 119° |
| 2026-04-22 05:18 | 25.15012 | 55.24272 | 7314 ft | 282 kts | 120° |
| 2026-04-22 05:19 | 25.14101 | 55.26209 | 7732 ft | 286 kts | 120° |
| 2026-04-22 05:19 | 25.13174 | 55.28168 | 8122 ft | 290 kts | 120° |
| 2026-04-22 05:19 | 25.12228 | 55.30149 | 8557 ft | 293 kts | 121° |
| 2026-04-22 05:19 | 25.11266 | 55.32151 | 8985 ft | 296 kts | 121° |
| 2026-04-22 05:20 | 25.10300 | 55.34181 | 9410 ft | 300 kts | 119° |
| 2026-04-22 05:20 | 25.09418 | 55.36291 | 9831 ft | 304 kts | 116° |
| 2026-04-22 05:20 | 25.08568 | 55.38415 | 10237 ft | 307 kts | 116° |
| 2026-04-22 05:20 | 25.07695 | 55.40579 | 10643 ft | 310 kts | 116° |
| 2026-04-22 05:21 | 25.06812 | 55.42759 | 11028 ft | 314 kts | 116° |
| 2026-04-22 05:21 | 25.05944 | 55.45017 | 11234 ft | 325 kts | 115° |
| 2026-04-22 05:21 | 25.05058 | 55.47355 | 11406 ft | 336 kts | 115° |
| 2026-04-22 05:21 | 25.04136 | 55.49774 | 11615 ft | 347 kts | 115° |
| 2026-04-22 05:22 | 25.03177 | 55.52276 | 11779 ft | 358 kts | 114° |
| 2026-04-22 05:22 | 25.02190 | 55.54794 | 11957 ft | 367 kts | 116° |
| 2026-04-22 05:22 | 25.00958 | 55.57314 | 12122 ft | 376 kts | 122° |
| 2026-04-22 05:22 | 24.99605 | 55.59834 | 12288 ft | 385 kts | 122° |
| 2026-04-22 05:23 | 24.98211 | 55.62401 | 12436 ft | 394 kts | 122° |
| 2026-04-22 05:23 | 24.96804 | 55.64994 | 12589 ft | 402 kts | 122° |
| 2026-04-22 05:23 | 24.95358 | 55.67662 | 12790 ft | 408 kts | 122° |
| 2026-04-22 05:23 | 24.93836 | 55.70327 | 13087 ft | 410 kts | 126° |
| 2026-04-22 05:24 | 24.92172 | 55.72900 | 13404 ft | 412 kts | 127° |
| 2026-04-22 05:24 | 24.90474 | 55.75458 | 13724 ft | 415 kts | 127° |
| 2026-04-22 05:24 | 24.88765 | 55.78029 | 14007 ft | 417 kts | 127° |
| 2026-04-22 05:24 | 24.87042 | 55.80622 | 14275 ft | 420 kts | 128° |
| 2026-04-22 05:25 | 24.85333 | 55.83194 | 14605 ft | 420 kts | 127° |
| 2026-04-22 05:25 | 24.83607 | 55.85793 | 15021 ft | 419 kts | 127° |
| 2026-04-22 05:25 | 24.81859 | 55.88387 | 15326 ft | 421 kts | 127° |
| 2026-04-22 05:25 | 24.80119 | 55.90948 | 15622 ft | 423 kts | 127° |
| 2026-04-22 05:26 | 24.78309 | 55.93515 | 15907 ft | 426 kts | 131° |
| 2026-04-22 05:26 | 24.76299 | 55.95908 | 16220 ft | 427 kts | 135° |
| 2026-04-22 05:26 | 24.74164 | 55.98185 | 16543 ft | 428 kts | 138° |
| 2026-04-22 05:26 | 24.71964 | 56.00409 | 16862 ft | 430 kts | 139° |
| 2026-04-22 05:27 | 24.69737 | 56.02625 | 17158 ft | 432 kts | 138° |
| 2026-04-22 05:27 | 24.67497 | 56.04860 | 17454 ft | 434 kts | 138° |
| 2026-04-22 05:27 | 24.65261 | 56.07114 | 17779 ft | 436 kts | 137° |
| 2026-04-22 05:27 | 24.63057 | 56.09355 | 18109 ft | 437 kts | 137° |
| 2026-04-22 05:28 | 24.60819 | 56.11647 | 18371 ft | 439 kts | 137° |
| 2026-04-22 05:28 | 24.58584 | 56.13953 | 18631 ft | 441 kts | 137° |
| 2026-04-22 05:28 | 24.56457 | 56.16398 | 18873 ft | 443 kts | 133° |
| 2026-04-22 05:28 | 24.54409 | 56.18895 | 19145 ft | 445 kts | 132° |
| 2026-04-22 05:29 | 24.52363 | 56.21462 | 19391 ft | 447 kts | 131° |
| 2026-04-22 05:29 | 24.50326 | 56.24058 | 19621 ft | 449 kts | 131° |
| 2026-04-22 05:29 | 24.48279 | 56.26683 | 19845 ft | 451 kts | 131° |
| 2026-04-22 05:29 | 24.46259 | 56.29274 | 20091 ft | 453 kts | 131° |
| 2026-04-22 05:30 | 24.44201 | 56.31907 | 20412 ft | 451 kts | 131° |
| 2026-04-22 05:30 | 24.42164 | 56.34505 | 20778 ft | 449 kts | 131° |
| 2026-04-22 05:30 | 24.40115 | 56.37114 | 20922 ft | 453 kts | 132° |
| 2026-04-22 05:30 | 24.38048 | 56.39739 | 21110 ft | 456 kts | 132° |
| 2026-04-22 05:31 | 24.35970 | 56.42376 | 21290 ft | 458 kts | 132° |
| 2026-04-22 05:31 | 24.33881 | 56.45024 | 21513 ft | 460 kts | 132° |
| 2026-04-22 05:31 | 24.31805 | 56.47655 | 21705 ft | 462 kts | 132° |
| 2026-04-22 05:31 | 24.29694 | 56.50329 | 21905 ft | 464 kts | 132° |
| 2026-04-22 05:32 | 24.27647 | 56.53080 | 22103 ft | 466 kts | 128° |
| 2026-04-22 05:32 | 24.25720 | 56.55952 | 22294 ft | 469 kts | 126° |
| 2026-04-22 05:32 | 24.23837 | 56.58891 | 22497 ft | 471 kts | 126° |
| 2026-04-22 05:32 | 24.21963 | 56.61840 | 22687 ft | 472 kts | 126° |
| 2026-04-22 05:33 | 24.20092 | 56.64757 | 22886 ft | 474 kts | 126° |
| 2026-04-22 05:33 | 24.18174 | 56.67707 | 23062 ft | 476 kts | 127° |
| 2026-04-22 05:33 | 24.16231 | 56.70662 | 23258 ft | 478 kts | 127° |
| 2026-04-22 05:33 | 24.14291 | 56.73587 | 23427 ft | 479 kts | 127° |
| 2026-04-22 05:34 | 24.12295 | 56.76585 | 23599 ft | 481 kts | 127° |
| 2026-04-22 05:34 | 24.10345 | 56.79506 | 23776 ft | 482 kts | 127° |
| 2026-04-22 05:34 | 24.08365 | 56.82471 | 23951 ft | 483 kts | 127° |
| 2026-04-22 05:34 | 24.06378 | 56.85445 | 24115 ft | 484 kts | 127° |
| 2026-04-22 05:35 | 24.04383 | 56.88430 | 24295 ft | 485 kts | 127° |
| 2026-04-22 05:35 | 24.02394 | 56.91412 | 24468 ft | 486 kts | 127° |
| 2026-04-22 05:35 | 24.00394 | 56.94405 | 24621 ft | 487 kts | 127° |
| 2026-04-22 05:35 | 23.98387 | 56.97400 | 24806 ft | 488 kts | 127° |
| 2026-04-22 05:36 | 23.96384 | 57.00387 | 24959 ft | 489 kts | 127° |
| 2026-04-22 05:36 | 23.94371 | 57.03389 | 25118 ft | 490 kts | 127° |
| 2026-04-22 05:36 | 23.92351 | 57.06399 | 25278 ft | 491 kts | 127° |
| 2026-04-22 05:36 | 23.90327 | 57.09414 | 25445 ft | 492 kts | 127° |
| 2026-04-22 05:37 | 23.88300 | 57.12433 | 25608 ft | 493 kts | 127° |
| 2026-04-22 05:37 | 23.86269 | 57.15459 | 25791 ft | 494 kts | 127° |
| 2026-04-22 05:37 | 23.84234 | 57.18488 | 25927 ft | 495 kts | 127° |
| 2026-04-22 05:37 | 23.82220 | 57.21483 | 26085 ft | 496 kts | 127° |
| 2026-04-22 05:38 | 23.80146 | 57.24564 | 26241 ft | 497 kts | 127° |
| 2026-04-22 05:38 | 23.78123 | 57.27569 | 26395 ft | 498 kts | 127° |
| 2026-04-22 05:38 | 23.76068 | 57.30620 | 26555 ft | 499 kts | 127° |
| 2026-04-22 05:38 | 23.74007 | 57.33678 | 26719 ft | 501 kts | 127° |
| 2026-04-22 05:39 | 23.71941 | 57.36742 | 26870 ft | 502 kts | 127° |
| 2026-04-22 05:39 | 23.69835 | 57.39782 | 27046 ft | 502 kts | 129° |
| 2026-04-22 05:39 | 23.67672 | 57.42769 | 27225 ft | 503 kts | 129° |
| 2026-04-22 05:39 | 23.65477 | 57.45744 | 27363 ft | 504 kts | 130° |
| 2026-04-22 05:40 | 23.63274 | 57.48719 | 27530 ft | 505 kts | 130° |
| 2026-04-22 05:40 | 23.61067 | 57.51707 | 27674 ft | 506 kts | 129° |
| 2026-04-22 05:40 | 23.58863 | 57.54707 | 27844 ft | 507 kts | 129° |
| 2026-04-22 05:40 | 23.56661 | 57.57715 | 27996 ft | 508 kts | 129° |
| 2026-04-22 05:41 | 23.54510 | 57.60776 | 28135 ft | 510 kts | 125° |
| 2026-04-22 05:41 | 23.52691 | 57.64099 | 28279 ft | 512 kts | 117° |
| 2026-04-22 05:41 | 23.51347 | 57.67688 | 28424 ft | 513 kts | 108° |
| 2026-04-22 05:41 | 23.50556 | 57.71476 | 28580 ft | 514 kts | 97° |
| 2026-04-22 05:42 | 23.50366 | 57.75363 | 28707 ft | 515 kts | 87° |
| 2026-04-22 05:42 | 23.50748 | 57.79244 | 28850 ft | 515 kts | 81° |
| 2026-04-22 05:42 | 23.51357 | 57.83094 | 28966 ft | 516 kts | 78° |
| 2026-04-22 05:42 | 23.52050 | 57.86932 | 29096 ft | 517 kts | 78° |
| 2026-04-22 05:43 | 23.52777 | 57.90781 | 29223 ft | 519 kts | 77° |
| 2026-04-22 05:43 | 23.53506 | 57.94633 | 29339 ft | 520 kts | 78° |
| 2026-04-22 05:43 | 23.54226 | 57.98501 | 29445 ft | 521 kts | 78° |
| 2026-04-22 05:43 | 23.54934 | 58.02380 | 29573 ft | 522 kts | 78° |
| 2026-04-22 05:44 | 23.55632 | 58.06265 | 29711 ft | 523 kts | 78° |
| 2026-04-22 05:44 | 23.56325 | 58.10161 | 29843 ft | 524 kts | 78° |
| 2026-04-22 05:44 | 23.57015 | 58.14063 | 30027 ft | 524 kts | 78° |
| 2026-04-22 05:44 | 23.57702 | 58.17962 | 30174 ft | 524 kts | 78° |
| 2026-04-22 05:45 | 23.58388 | 58.21862 | 30346 ft | 524 kts | 79° |
| 2026-04-22 05:45 | 23.59074 | 58.25757 | 30541 ft | 523 kts | 78° |
| 2026-04-22 05:45 | 23.59754 | 58.29651 | 30720 ft | 523 kts | 79° |
| 2026-04-22 05:45 | 23.60406 | 58.33495 | 30889 ft | 523 kts | 79° |
| 2026-04-22 05:46 | 23.61055 | 58.37393 | 31085 ft | 523 kts | 79° |
| 2026-04-22 05:46 | 23.61701 | 58.41295 | 31275 ft | 522 kts | 79° |
| 2026-04-22 05:46 | 23.62346 | 58.45189 | 31470 ft | 522 kts | 79° |
| 2026-04-22 05:46 | 23.62993 | 58.49081 | 31665 ft | 522 kts | 79° |
| 2026-04-22 05:47 | 23.63640 | 58.52974 | 31877 ft | 521 kts | 79° |
| 2026-04-22 05:47 | 23.64286 | 58.56861 | 32068 ft | 521 kts | 79° |
| 2026-04-22 05:47 | 23.64933 | 58.60749 | 32243 ft | 521 kts | 78° |
| 2026-04-22 05:47 | 23.65579 | 58.64637 | 32435 ft | 521 kts | 78° |
| 2026-04-22 05:48 | 23.66224 | 58.68523 | 32617 ft | 521 kts | 78° |
| 2026-04-22 05:48 | 23.66869 | 58.72414 | 32834 ft | 521 kts | 78° |
| 2026-04-22 05:48 | 23.67511 | 58.76298 | 33014 ft | 521 kts | 78° |
| 2026-04-22 05:48 | 23.68152 | 58.80178 | 33212 ft | 521 kts | 78° |
| 2026-04-22 05:49 | 23.68796 | 58.84073 | 33392 ft | 520 kts | 78° |
| 2026-04-22 05:49 | 23.69437 | 58.87953 | 33583 ft | 520 kts | 78° |
| 2026-04-22 05:49 | 23.70078 | 58.91839 | 33770 ft | 520 kts | 78° |
| 2026-04-22 05:49 | 23.70717 | 58.95723 | 33936 ft | 520 kts | 78° |
| 2026-04-22 05:50 | 23.71354 | 58.99604 | 34088 ft | 520 kts | 78° |
| 2026-04-22 05:50 | 23.71992 | 59.03492 | 34238 ft | 520 kts | 78° |
| 2026-04-22 05:50 | 23.72628 | 59.07374 | 34417 ft | 519 kts | 78° |
| 2026-04-22 05:50 | 23.73262 | 59.11253 | 34573 ft | 519 kts | 78° |
| 2026-04-22 05:51 | 23.74315 | 59.17704 | 34799 ft | 520 kts | 78° |
| 2026-04-22 05:51 | 23.74947 | 59.21586 | 34934 ft | 520 kts | 78° |
| 2026-04-22 05:51 | 23.75579 | 59.25476 | 35076 ft | 520 kts | 78° |
| 2026-04-22 05:52 | 23.76210 | 59.29362 | 35208 ft | 520 kts | 77° |
| 2026-04-22 05:52 | 23.76840 | 59.33251 | 35350 ft | 520 kts | 78° |
| 2026-04-22 05:52 | 23.77468 | 59.37131 | 35549 ft | 519 kts | 78° |
| 2026-04-22 05:52 | 23.78094 | 59.41008 | 35683 ft | 519 kts | 77° |
| 2026-04-22 05:53 | 23.78719 | 59.44888 | 35807 ft | 519 kts | 77° |
| 2026-04-22 05:53 | 23.79344 | 59.48771 | 35931 ft | 519 kts | 77° |
| 2026-04-22 05:53 | 23.79969 | 59.52658 | 36061 ft | 520 kts | 77° |
| 2026-04-22 05:53 | 23.80592 | 59.56544 | 36194 ft | 520 kts | 77° |
| 2026-04-22 05:54 | 23.81212 | 59.60429 | 36322 ft | 520 kts | 77° |
| 2026-04-22 05:54 | 23.81830 | 59.64314 | 36499 ft | 518 kts | 77° |
| 2026-04-22 05:54 | 23.82445 | 59.68188 | 36640 ft | 518 kts | 77° |
| 2026-04-22 05:54 | 23.83052 | 59.72010 | 36739 ft | 518 kts | 77° |
| 2026-04-22 05:55 | 23.83668 | 59.75896 | 36842 ft | 519 kts | 77° |
| 2026-04-22 05:55 | 23.84285 | 59.79793 | 36858 ft | 522 kts | 77° |
| 2026-04-22 05:55 | 23.85530 | 59.87632 | 36856 ft | 525 kts | 77° |
| 2026-04-22 05:56 | 23.86765 | 59.95482 | 36853 ft | 523 kts | 77° |
| 2026-04-22 05:56 | 23.87994 | 60.03313 | 36854 ft | 523 kts | 77° |
| 2026-04-22 05:57 | 23.89219 | 60.11142 | 36856 ft | 523 kts | 78° |
| 2026-04-22 05:57 | 23.90441 | 60.18971 | 36861 ft | 523 kts | 78° |
| 2026-04-22 05:58 | 23.91658 | 60.26795 | 36856 ft | 522 kts | 78° |
| 2026-04-22 05:58 | 23.92870 | 60.34613 | 36856 ft | 522 kts | 78° |
| 2026-04-22 05:59 | 23.94078 | 60.42434 | 36856 ft | 522 kts | 78° |
| 2026-04-22 05:59 | 23.95282 | 60.50252 | 36857 ft | 521 kts | 78° |
| 2026-04-22 06:00 | 23.96480 | 60.58064 | 36856 ft | 521 kts | 78° |
| 2026-04-22 06:00 | 23.97673 | 60.65873 | 36859 ft | 521 kts | 78° |
| 2026-04-22 06:01 | 23.98863 | 60.73683 | 36856 ft | 521 kts | 78° |
| 2026-04-22 06:01 | 24.00048 | 60.81489 | 36856 ft | 520 kts | 78° |
| 2026-04-22 06:02 | 24.01227 | 60.89283 | 36856 ft | 519 kts | 78° |
| 2026-04-22 06:02 | 24.02401 | 60.97074 | 36856 ft | 519 kts | 78° |
| 2026-04-22 06:03 | 24.03572 | 61.04870 | 36863 ft | 519 kts | 79° |
| 2026-04-22 06:03 | 24.04738 | 61.12657 | 36862 ft | 518 kts | 79° |
| 2026-04-22 06:04 | 24.05890 | 61.20387 | 36862 ft | 518 kts | 79° |
| 2026-04-22 06:04 | 24.07046 | 61.28167 | 36864 ft | 518 kts | 79° |
| 2026-04-22 06:05 | 24.08200 | 61.35945 | 36867 ft | 518 kts | 79° |
| 2026-04-22 06:05 | 24.09346 | 61.43721 | 36864 ft | 517 kts | 79° |
| 2026-04-22 06:06 | 24.10482 | 61.51494 | 36867 ft | 517 kts | 79° |
| 2026-04-22 06:06 | 24.11614 | 61.59263 | 36870 ft | 517 kts | 79° |
| 2026-04-22 06:07 | 24.12746 | 61.67042 | 36870 ft | 517 kts | 79° |
| 2026-04-22 06:07 | 24.13872 | 61.74814 | 36870 ft | 517 kts | 79° |
| 2026-04-22 06:08 | 24.14991 | 61.82591 | 36870 ft | 517 kts | 80° |
| 2026-04-22 06:08 | 24.16055 | 61.90381 | 36870 ft | 517 kts | 80° |
| 2026-04-22 06:09 | 24.17099 | 61.98170 | 36870 ft | 517 kts | 81° |
| 2026-04-22 06:09 | 24.18144 | 62.05953 | 36875 ft | 516 kts | 81° |
| 2026-04-22 06:10 | 24.19190 | 62.13732 | 36875 ft | 516 kts | 81° |
| 2026-04-22 06:10 | 24.20233 | 62.21508 | 36877 ft | 516 kts | 81° |
| 2026-04-22 06:11 | 24.21266 | 62.29238 | 36878 ft | 516 kts | 81° |
| 2026-04-22 06:11 | 24.22306 | 62.37055 | 36878 ft | 515 kts | 81° |
| 2026-04-22 06:12 | 24.23329 | 62.44774 | 36875 ft | 515 kts | 81° |
| 2026-04-22 06:12 | 24.24355 | 62.52546 | 36881 ft | 515 kts | 81° |
| 2026-04-22 06:13 | 24.25378 | 62.60325 | 36882 ft | 516 kts | 81° |
| 2026-04-22 06:13 | 24.26395 | 62.68100 | 36875 ft | 516 kts | 81° |
| 2026-04-22 06:14 | 24.27410 | 62.75883 | 36880 ft | 516 kts | 81° |
| 2026-04-22 06:14 | 24.28421 | 62.83662 | 36881 ft | 516 kts | 81° |
| 2026-04-22 06:15 | 24.29430 | 62.91461 | 36879 ft | 518 kts | 81° |
| 2026-04-22 06:15 | 24.30435 | 62.99268 | 36878 ft | 518 kts | 81° |
| 2026-04-22 06:16 | 24.31439 | 63.07089 | 36881 ft | 518 kts | 81° |
| 2026-04-22 06:16 | 24.32438 | 63.14914 | 36877 ft | 518 kts | 82° |
| 2026-04-22 06:17 | 24.33427 | 63.22684 | 36884 ft | 518 kts | 82° |
| 2026-04-22 06:17 | 24.34419 | 63.30515 | 36884 ft | 518 kts | 82° |
| 2026-04-22 06:18 | 24.35407 | 63.38343 | 36880 ft | 518 kts | 82° |
| 2026-04-22 06:18 | 24.36391 | 63.46174 | 36885 ft | 518 kts | 82° |
| 2026-04-22 06:19 | 24.37371 | 63.54009 | 36887 ft | 519 kts | 82° |
| 2026-04-22 06:19 | 24.38347 | 63.61844 | 36884 ft | 519 kts | 82° |
| 2026-04-22 06:20 | 24.39319 | 63.69685 | 36886 ft | 519 kts | 82° |
| 2026-04-22 06:20 | 24.40288 | 63.77528 | 36885 ft | 519 kts | 82° |
| 2026-04-22 06:21 | 24.41253 | 63.85375 | 36883 ft | 519 kts | 82° |
| 2026-04-22 06:21 | 24.42214 | 63.93224 | 36882 ft | 519 kts | 82° |
| 2026-04-22 06:22 | 24.43170 | 64.01073 | 36881 ft | 519 kts | 82° |
| 2026-04-22 06:22 | 24.44123 | 64.08920 | 36880 ft | 519 kts | 82° |
| 2026-04-22 06:23 | 24.45071 | 64.16770 | 36882 ft | 519 kts | 82° |
| 2026-04-22 06:23 | 24.46015 | 64.24619 | 36886 ft | 519 kts | 82° |
| 2026-04-22 06:24 | 24.47423 | 64.36392 | 36881 ft | 519 kts | 82° |
| 2026-04-22 06:25 | 24.48350 | 64.44183 | 36882 ft | 518 kts | 82° |
| 2026-04-22 06:25 | 24.49278 | 64.52019 | 36887 ft | 518 kts | 82° |
| 2026-04-22 06:26 | 24.50202 | 64.59854 | 36883 ft | 518 kts | 82° |
| 2026-04-22 06:26 | 24.51122 | 64.67697 | 36884 ft | 518 kts | 82° |
| 2026-04-22 06:27 | 24.52038 | 64.75537 | 36880 ft | 518 kts | 82° |
| 2026-04-22 06:27 | 24.52951 | 64.83384 | 36886 ft | 518 kts | 83° |
| 2026-04-22 06:28 | 24.54132 | 64.91177 | 36882 ft | 517 kts | 78° |
| 2026-04-22 06:28 | 24.55550 | 64.98929 | 36885 ft | 517 kts | 78° |
| 2026-04-22 06:29 | 24.56934 | 65.06672 | 36877 ft | 517 kts | 79° |
| 2026-04-22 06:29 | 24.58264 | 65.14426 | 36878 ft | 516 kts | 79° |
| 2026-04-22 06:30 | 24.59571 | 65.22184 | 36880 ft | 516 kts | 79° |
| 2026-04-22 06:30 | 24.60872 | 65.29943 | 36881 ft | 516 kts | 79° |
| 2026-04-22 06:31 | 24.62161 | 65.37645 | 36877 ft | 515 kts | 79° |
| 2026-04-22 06:31 | 24.63435 | 65.45381 | 36878 ft | 514 kts | 79° |
| 2026-04-22 06:32 | 24.64699 | 65.53119 | 36876 ft | 514 kts | 79° |
| 2026-04-22 06:32 | 24.65962 | 65.60858 | 36877 ft | 514 kts | 79° |
| 2026-04-22 06:33 | 24.67221 | 65.68592 | 36872 ft | 513 kts | 79° |
| 2026-04-22 06:33 | 24.68475 | 65.76315 | 36871 ft | 513 kts | 79° |
| 2026-04-22 06:34 | 24.69724 | 65.84033 | 36870 ft | 513 kts | 79° |
| 2026-04-22 06:34 | 24.70970 | 65.91755 | 36869 ft | 513 kts | 79° |
| 2026-04-22 06:35 | 24.72211 | 65.99477 | 36872 ft | 513 kts | 79° |
| 2026-04-22 06:35 | 24.73448 | 66.07198 | 36873 ft | 512 kts | 79° |
| 2026-04-22 06:36 | 24.74680 | 66.14918 | 36873 ft | 512 kts | 79° |
| 2026-04-22 06:36 | 24.75901 | 66.22589 | 36870 ft | 512 kts | 79° |
| 2026-04-22 06:37 | 24.77133 | 66.30361 | 36876 ft | 513 kts | 80° |
| 2026-04-22 06:37 | 24.78346 | 66.38037 | 36873 ft | 513 kts | 80° |
| 2026-04-22 06:38 | 24.79563 | 66.45765 | 36874 ft | 513 kts | 80° |
| 2026-04-22 06:38 | 24.80777 | 66.53500 | 36876 ft | 513 kts | 80° |
| 2026-04-22 06:39 | 24.81987 | 66.61234 | 36869 ft | 513 kts | 80° |
| 2026-04-22 06:39 | 24.83196 | 66.68976 | 36873 ft | 513 kts | 80° |
| 2026-04-22 06:40 | 24.84457 | 66.76704 | 36868 ft | 513 kts | 79° |
| 2026-04-22 06:40 | 24.85734 | 66.84429 | 36876 ft | 513 kts | 79° |
| 2026-04-22 06:41 | 24.87000 | 66.92161 | 36881 ft | 513 kts | 80° |
| 2026-04-22 06:41 | 24.88256 | 66.99893 | 36881 ft | 513 kts | 80° |
| 2026-04-22 06:42 | 24.89295 | 67.06321 | 36884 ft | 513 kts | 80° |
| 2026-04-22 06:42 | 24.90959 | 67.13948 | 36881 ft | 512 kts | 68° |
| 2026-04-22 06:42 | 24.93079 | 67.18572 | 36881 ft | 510 kts | 55° |
| 2026-04-22 06:43 | 24.95260 | 67.21635 | 36882 ft | 508 kts | 45° |
| 2026-04-22 06:43 | 24.99608 | 67.26036 | 36881 ft | 507 kts | 39° |
| 2026-04-22 06:44 | 25.05038 | 67.31007 | 36872 ft | 507 kts | 38° |
| 2026-04-22 06:44 | 25.10454 | 67.35907 | 36869 ft | 507 kts | 38° |
| 2026-04-22 06:45 | 25.15889 | 67.40880 | 36862 ft | 507 kts | 38° |
| 2026-04-22 06:45 | 25.21300 | 67.45872 | 36850 ft | 507 kts | 38° |
| 2026-04-22 06:46 | 25.26722 | 67.50876 | 36850 ft | 507 kts | 38° |
| 2026-04-22 06:46 | 25.32164 | 67.55843 | 36842 ft | 507 kts | 38° |
| 2026-04-22 06:47 | 25.37602 | 67.60806 | 36839 ft | 507 kts | 38° |
| 2026-04-22 06:47 | 25.43032 | 67.65777 | 36840 ft | 507 kts | 38° |
| 2026-04-22 06:48 | 25.48456 | 67.70752 | 36829 ft | 507 kts | 38° |
| 2026-04-22 06:48 | 25.53879 | 67.75735 | 36829 ft | 507 kts | 38° |
| 2026-04-22 06:49 | 25.59301 | 67.80722 | 36817 ft | 507 kts | 38° |
| 2026-04-22 06:49 | 25.64725 | 67.85717 | 36815 ft | 507 kts | 38° |
| 2026-04-22 06:50 | 25.70144 | 67.90713 | 36814 ft | 507 kts | 38° |
| 2026-04-22 06:50 | 25.75524 | 67.95680 | 36805 ft | 507 kts | 38° |
| 2026-04-22 06:51 | 25.80942 | 68.00687 | 36802 ft | 507 kts | 38° |
| 2026-04-22 06:51 | 25.86356 | 68.05697 | 36801 ft | 507 kts | 38° |
| 2026-04-22 06:52 | 25.91773 | 68.10716 | 36796 ft | 507 kts | 38° |
| 2026-04-22 06:52 | 25.97188 | 68.15739 | 36796 ft | 507 kts | 38° |
| 2026-04-22 06:53 | 26.02598 | 68.20763 | 36793 ft | 506 kts | 38° |
| 2026-04-22 06:53 | 26.08000 | 68.25788 | 36797 ft | 506 kts | 38° |
| 2026-04-22 06:54 | 26.13394 | 68.30811 | 36790 ft | 506 kts | 38° |
| 2026-04-22 06:54 | 26.18792 | 68.35837 | 36789 ft | 505 kts | 38° |
| 2026-04-22 06:55 | 26.24719 | 68.39950 | 36794 ft | 501 kts | 24° |
| 2026-04-22 06:55 | 26.31048 | 68.43188 | 36788 ft | 501 kts | 21° |
| 2026-04-22 06:56 | 26.37438 | 68.46279 | 36784 ft | 501 kts | 21° |
| 2026-04-22 06:56 | 26.43783 | 68.49344 | 36785 ft | 500 kts | 21° |
| 2026-04-22 06:57 | 26.50162 | 68.52454 | 36787 ft | 500 kts | 21° |
| 2026-04-22 06:57 | 26.56535 | 68.55576 | 36788 ft | 500 kts | 21° |
| 2026-04-22 06:58 | 26.62908 | 68.58706 | 36785 ft | 500 kts | 21° |
| 2026-04-22 06:58 | 26.69279 | 68.61837 | 36785 ft | 500 kts | 21° |
| 2026-04-22 06:59 | 26.75645 | 68.64969 | 36784 ft | 500 kts | 21° |
| 2026-04-22 06:59 | 26.82014 | 68.68105 | 36782 ft | 500 kts | 21° |
| 2026-04-22 07:00 | 26.88380 | 68.71244 | 36784 ft | 500 kts | 21° |
| 2026-04-22 07:00 | 26.94748 | 68.74389 | 36785 ft | 500 kts | 21° |
| 2026-04-22 07:01 | 27.01074 | 68.77516 | 36790 ft | 500 kts | 21° |
| 2026-04-22 07:01 | 27.07437 | 68.80666 | 36782 ft | 500 kts | 21° |
| 2026-04-22 07:02 | 27.13799 | 68.83819 | 36774 ft | 500 kts | 21° |
| 2026-04-22 07:02 | 27.20160 | 68.86976 | 36779 ft | 500 kts | 21° |
| 2026-04-22 07:03 | 27.26522 | 68.90137 | 36780 ft | 500 kts | 21° |
| 2026-04-22 07:03 | 27.32877 | 68.93298 | 36770 ft | 500 kts | 21° |
| 2026-04-22 07:04 | 27.39236 | 68.96466 | 36761 ft | 500 kts | 21° |
| 2026-04-22 07:04 | 27.45591 | 68.99636 | 36767 ft | 499 kts | 21° |
| 2026-04-22 07:05 | 27.51944 | 69.02810 | 36766 ft | 499 kts | 21° |
| 2026-04-22 07:05 | 27.58302 | 69.05986 | 36780 ft | 499 kts | 21° |
| 2026-04-22 07:06 | 27.64652 | 69.09163 | 36764 ft | 500 kts | 21° |
| 2026-04-22 07:06 | 27.71006 | 69.12347 | 36772 ft | 500 kts | 21° |
| 2026-04-22 07:07 | 27.77324 | 69.15517 | 36761 ft | 500 kts | 21° |
| 2026-04-22 07:07 | 27.83681 | 69.18711 | 36766 ft | 500 kts | 21° |
| 2026-04-22 07:08 | 27.90104 | 69.21674 | 36773 ft | 497 kts | 13° |
| 2026-04-22 07:08 | 27.96862 | 69.22922 | 36765 ft | 491 kts | 2° |
| 2026-04-22 07:09 | 28.03681 | 69.23451 | 36760 ft | 491 kts | 0° |
| 2026-04-22 07:09 | 28.10503 | 69.23860 | 36763 ft | 491 kts | 0° |
| 2026-04-22 07:10 | 28.17321 | 69.24280 | 36756 ft | 491 kts | 0° |
| 2026-04-22 07:10 | 28.24146 | 69.24724 | 36760 ft | 491 kts | 1° |
| 2026-04-22 07:11 | 28.30969 | 69.25177 | 36763 ft | 491 kts | 1° |
| 2026-04-22 07:11 | 28.37790 | 69.25633 | 36760 ft | 491 kts | 1° |
| 2026-04-22 07:12 | 28.44611 | 69.26087 | 36771 ft | 491 kts | 1° |
| 2026-04-22 07:12 | 28.51431 | 69.26541 | 36771 ft | 491 kts | 1° |
| 2026-04-22 07:13 | 28.58259 | 69.26997 | 36769 ft | 491 kts | 1° |
| 2026-04-22 07:13 | 28.65083 | 69.27453 | 36781 ft | 491 kts | 1° |
| 2026-04-22 07:14 | 28.71893 | 69.27909 | 36779 ft | 491 kts | 1° |
| 2026-04-22 07:14 | 28.78720 | 69.28370 | 36790 ft | 491 kts | 1° |
| 2026-04-22 07:15 | 28.85545 | 69.28820 | 36793 ft | 492 kts | 1° |
| 2026-04-22 07:15 | 28.92377 | 69.29272 | 36798 ft | 492 kts | 1° |
| 2026-04-22 07:16 | 28.99204 | 69.29727 | 36806 ft | 492 kts | 1° |
| 2026-04-22 07:16 | 29.06036 | 69.30183 | 36806 ft | 492 kts | 1° |
| 2026-04-22 07:17 | 29.12863 | 69.30642 | 36805 ft | 492 kts | 1° |
| 2026-04-22 07:17 | 29.19650 | 69.31099 | 36805 ft | 492 kts | 1° |
| 2026-04-22 07:18 | 29.26476 | 69.31559 | 36805 ft | 492 kts | 1° |
| 2026-04-22 07:18 | 29.33308 | 69.32020 | 36816 ft | 492 kts | 1° |
| 2026-04-22 07:19 | 29.40133 | 69.32482 | 36815 ft | 491 kts | 1° |
| 2026-04-22 07:19 | 29.46963 | 69.32945 | 36812 ft | 491 kts | 1° |
| 2026-04-22 07:20 | 29.53792 | 69.33407 | 36817 ft | 491 kts | 1° |
| 2026-04-22 07:20 | 29.60618 | 69.33871 | 36819 ft | 492 kts | 1° |
| 2026-04-22 07:21 | 29.67443 | 69.34336 | 36830 ft | 491 kts | 1° |
| 2026-04-22 07:21 | 29.74273 | 69.34801 | 36829 ft | 491 kts | 1° |
| 2026-04-22 07:22 | 29.81099 | 69.35266 | 36833 ft | 491 kts | 1° |
| 2026-04-22 07:22 | 29.87926 | 69.35732 | 36844 ft | 492 kts | 1° |
| 2026-04-22 07:23 | 29.94755 | 69.36199 | 36840 ft | 491 kts | 1° |
| 2026-04-22 07:23 | 30.01584 | 69.36666 | 36842 ft | 491 kts | 1° |
| 2026-04-22 07:24 | 30.08406 | 69.37133 | 36851 ft | 491 kts | 1° |
| 2026-04-22 07:24 | 30.15235 | 69.37603 | 36849 ft | 491 kts | 1° |
| 2026-04-22 07:25 | 30.22060 | 69.38072 | 36844 ft | 491 kts | 1° |
| 2026-04-22 07:25 | 30.28882 | 69.38546 | 36849 ft | 491 kts | 1° |
| 2026-04-22 07:26 | 30.35706 | 69.39019 | 36850 ft | 491 kts | 1° |
| 2026-04-22 07:26 | 30.42530 | 69.39487 | 36860 ft | 491 kts | 1° |
| 2026-04-22 07:27 | 30.49356 | 69.39958 | 36859 ft | 491 kts | 1° |
| 2026-04-22 07:27 | 30.56136 | 69.40428 | 36861 ft | 491 kts | 1° |
| 2026-04-22 07:28 | 30.66424 | 69.41143 | 36876 ft | 491 kts | 1° |
| 2026-04-22 07:28 | 30.73206 | 69.41615 | 36868 ft | 492 kts | 1° |
| 2026-04-22 07:29 | 30.80034 | 69.42091 | 36864 ft | 492 kts | 1° |
| 2026-04-22 07:29 | 30.86871 | 69.42568 | 36876 ft | 492 kts | 1° |
| 2026-04-22 07:30 | 30.93699 | 69.43045 | 36878 ft | 492 kts | 1° |
| 2026-04-22 07:30 | 31.00538 | 69.43524 | 36872 ft | 492 kts | 1° |
| 2026-04-22 07:31 | 31.06220 | 69.43922 | 36870 ft | 492 kts | 1° |
| 2026-04-22 07:31 | 31.13058 | 69.44402 | 36870 ft | 493 kts | 1° |
| 2026-04-22 07:32 | 31.19903 | 69.44883 | 36872 ft | 493 kts | 1° |
| 2026-04-22 07:32 | 31.26749 | 69.45365 | 36857 ft | 493 kts | 0° |
| 2026-04-22 07:33 | 31.33584 | 69.46213 | 36853 ft | 497 kts | 10° |
| 2026-04-22 07:33 | 31.40040 | 69.49151 | 36850 ft | 502 kts | 26° |
| 2026-04-22 07:34 | 31.46104 | 69.53255 | 36868 ft | 504 kts | 29° |
| 2026-04-22 07:34 | 31.52069 | 69.57532 | 36851 ft | 502 kts | 29° |
| 2026-04-22 07:35 | 31.58027 | 69.61803 | 36851 ft | 502 kts | 29° |
| 2026-04-22 07:35 | 31.63992 | 69.66046 | 36843 ft | 502 kts | 28° |
| 2026-04-22 07:36 | 31.69967 | 69.70286 | 36843 ft | 502 kts | 28° |
| 2026-04-22 07:36 | 31.75941 | 69.74528 | 36837 ft | 502 kts | 28° |
| 2026-04-22 07:37 | 31.81911 | 69.78776 | 36840 ft | 502 kts | 28° |
| 2026-04-22 07:37 | 31.87875 | 69.83027 | 36823 ft | 501 kts | 29° |
| 2026-04-22 07:38 | 31.93843 | 69.87286 | 36827 ft | 501 kts | 29° |
| 2026-04-22 07:38 | 31.99789 | 69.91539 | 36826 ft | 499 kts | 29° |
| 2026-04-22 07:39 | 32.05730 | 69.95799 | 36816 ft | 500 kts | 29° |
| 2026-04-22 07:39 | 32.11676 | 70.00065 | 36822 ft | 501 kts | 28° |
| 2026-04-22 07:40 | 32.17633 | 70.04339 | 36821 ft | 501 kts | 28° |
| 2026-04-22 07:40 | 32.23592 | 70.08622 | 36802 ft | 501 kts | 28° |
| 2026-04-22 07:41 | 32.29549 | 70.12916 | 36812 ft | 501 kts | 28° |
| 2026-04-22 07:41 | 32.35502 | 70.17215 | 36868 ft | 501 kts | 28° |
| 2026-04-22 07:42 | 32.38429 | 70.19327 | 37105 ft | 499 kts | 28° |
| 2026-04-22 07:42 | 32.41401 | 70.21424 | 37412 ft | 495 kts | 27° |
| 2026-04-22 07:42 | 32.44357 | 70.23471 | 37741 ft | 491 kts | 27° |
| 2026-04-22 07:42 | 32.47316 | 70.25506 | 37815 ft | 493 kts | 27° |
| 2026-04-22 07:43 | 32.53273 | 70.29608 | 37815 ft | 496 kts | 27° |
| 2026-04-22 07:43 | 32.59250 | 70.33756 | 37803 ft | 500 kts | 27° |
| 2026-04-22 07:44 | 32.65271 | 70.37967 | 37796 ft | 505 kts | 28° |
| 2026-04-22 07:44 | 32.71231 | 70.42450 | 37800 ft | 509 kts | 30° |
| 2026-04-22 07:45 | 32.77172 | 70.47071 | 37801 ft | 511 kts | 30° |
| 2026-04-22 07:45 | 32.83135 | 70.51680 | 37787 ft | 511 kts | 30° |
| 2026-04-22 07:46 | 32.89174 | 70.56112 | 37794 ft | 506 kts | 23° |
| 2026-04-22 07:46 | 32.95761 | 70.58695 | 37794 ft | 495 kts | 5° |
| 2026-04-22 07:47 | 33.02580 | 70.58844 | 37795 ft | 489 kts | 353° |
| 2026-04-22 07:47 | 33.09364 | 70.58227 | 37804 ft | 489 kts | 351° |
| 2026-04-22 07:48 | 33.16145 | 70.57507 | 37805 ft | 489 kts | 352° |
| 2026-04-22 07:48 | 33.22929 | 70.56816 | 37812 ft | 489 kts | 352° |
| 2026-04-22 07:49 | 33.29718 | 70.56154 | 37830 ft | 489 kts | 352° |
| 2026-04-22 07:49 | 33.36503 | 70.55500 | 37830 ft | 489 kts | 352° |
| 2026-04-22 07:50 | 33.43250 | 70.54849 | 37857 ft | 489 kts | 352° |
| 2026-04-22 07:50 | 33.50032 | 70.54192 | 37870 ft | 489 kts | 352° |
| 2026-04-22 07:51 | 33.56813 | 70.53528 | 37867 ft | 490 kts | 351° |
| 2026-04-22 07:51 | 33.63611 | 70.52868 | 37895 ft | 490 kts | 351° |
| 2026-04-22 07:52 | 33.70417 | 70.52208 | 37917 ft | 491 kts | 352° |
| 2026-04-22 07:52 | 33.77229 | 70.51545 | 37928 ft | 491 kts | 352° |
| 2026-04-22 07:53 | 33.84014 | 70.50695 | 37931 ft | 488 kts | 345° |
| 2026-04-22 07:53 | 33.90333 | 70.48044 | 37928 ft | 478 kts | 328° |
| 2026-04-22 07:54 | 33.95543 | 70.43228 | 37923 ft | 472 kts | 309° |
| 2026-04-22 07:54 | 33.99239 | 70.36758 | 37915 ft | 469 kts | 297° |
| 2026-04-22 07:55 | 34.02326 | 70.29827 | 37926 ft | 469 kts | 295° |
| 2026-04-22 07:55 | 34.05331 | 70.22839 | 37917 ft | 470 kts | 295° |
| 2026-04-22 07:56 | 34.08357 | 70.15874 | 37925 ft | 467 kts | 295° |
| 2026-04-22 07:56 | 34.11361 | 70.09012 | 37915 ft | 465 kts | 295° |
| 2026-04-22 07:57 | 34.14400 | 70.02076 | 37929 ft | 464 kts | 295° |
| 2026-04-22 07:57 | 34.17384 | 69.95249 | 37917 ft | 462 kts | 295° |
| 2026-04-22 07:58 | 34.20371 | 69.88373 | 37926 ft | 463 kts | 295° |
| 2026-04-22 07:58 | 34.23349 | 69.81455 | 37916 ft | 465 kts | 295° |
| 2026-04-22 07:59 | 34.26335 | 69.74493 | 37926 ft | 468 kts | 294° |
| 2026-04-22 07:59 | 34.29334 | 69.67500 | 37928 ft | 469 kts | 294° |
| 2026-04-22 08:00 | 34.32341 | 69.60483 | 37934 ft | 470 kts | 294° |
| 2026-04-22 08:00 | 34.35341 | 69.53463 | 37932 ft | 470 kts | 294° |
| 2026-04-22 08:01 | 34.38342 | 69.46433 | 37923 ft | 470 kts | 294° |
| 2026-04-22 08:01 | 34.41339 | 69.39392 | 37922 ft | 470 kts | 294° |
| 2026-04-22 08:02 | 34.44331 | 69.32350 | 37922 ft | 470 kts | 294° |
| 2026-04-22 08:02 | 34.47320 | 69.25301 | 37926 ft | 470 kts | 293° |
| 2026-04-22 08:03 | 34.50642 | 69.18449 | 37919 ft | 476 kts | 303° |
| 2026-04-22 08:03 | 34.55422 | 69.12829 | 37925 ft | 486 kts | 321° |
| 2026-04-22 08:04 | 34.61294 | 69.08652 | 37943 ft | 491 kts | 327° |
| 2026-04-22 08:04 | 34.67355 | 69.04780 | 37941 ft | 492 kts | 328° |
| 2026-04-22 08:05 | 34.73429 | 69.00925 | 37948 ft | 493 kts | 328° |
| 2026-04-22 08:05 | 34.79499 | 68.97016 | 37982 ft | 494 kts | 327° |
| 2026-04-22 08:06 | 34.85566 | 68.93080 | 37978 ft | 494 kts | 327° |
| 2026-04-22 08:06 | 34.91629 | 68.89138 | 37994 ft | 495 kts | 327° |
| 2026-04-22 08:07 | 34.97698 | 68.85182 | 38007 ft | 495 kts | 327° |
| 2026-04-22 08:07 | 35.03777 | 68.81207 | 38009 ft | 497 kts | 327° |
| 2026-04-22 08:08 | 35.09874 | 68.77220 | 38034 ft | 498 kts | 327° |
| 2026-04-22 08:08 | 35.15982 | 68.73221 | 38008 ft | 498 kts | 327° |
| 2026-04-22 08:09 | 35.22084 | 68.69214 | 37999 ft | 498 kts | 327° |
| 2026-04-22 08:09 | 35.28135 | 68.65227 | 37996 ft | 497 kts | 326° |
| 2026-04-22 08:10 | 35.34251 | 68.61211 | 37974 ft | 493 kts | 326° |
| 2026-04-22 08:10 | 35.40293 | 68.57260 | 37968 ft | 494 kts | 326° |
| 2026-04-22 08:11 | 35.46321 | 68.53258 | 37941 ft | 498 kts | 326° |
| 2026-04-22 08:11 | 35.52410 | 68.49211 | 37950 ft | 498 kts | 325° |
| 2026-04-22 08:12 | 35.58512 | 68.45163 | 37934 ft | 498 kts | 325° |
| 2026-04-22 08:12 | 35.64606 | 68.41111 | 37935 ft | 498 kts | 325° |
| 2026-04-22 08:13 | 35.70687 | 68.37035 | 37932 ft | 498 kts | 325° |
| 2026-04-22 08:13 | 35.76766 | 68.32950 | 37939 ft | 498 kts | 325° |
| 2026-04-22 08:14 | 35.82844 | 68.28866 | 37938 ft | 497 kts | 324° |
| 2026-04-22 08:14 | 35.88914 | 68.24777 | 37928 ft | 497 kts | 324° |
| 2026-04-22 08:15 | 35.94988 | 68.20679 | 37930 ft | 498 kts | 324° |
| 2026-04-22 08:15 | 36.01082 | 68.16563 | 37931 ft | 501 kts | 324° |
| 2026-04-22 08:16 | 36.07200 | 68.12421 | 37922 ft | 503 kts | 324° |
| 2026-04-22 08:16 | 36.13337 | 68.08263 | 37932 ft | 503 kts | 324° |
| 2026-04-22 08:17 | 36.19482 | 68.04094 | 37910 ft | 504 kts | 324° |
| 2026-04-22 08:17 | 36.25627 | 67.99914 | 37899 ft | 504 kts | 324° |
| 2026-04-22 08:18 | 36.30731 | 67.96436 | 37887 ft | 504 kts | 324° |
| 2026-04-22 08:18 | 36.36871 | 67.92243 | 37890 ft | 504 kts | 324° |
| 2026-04-22 08:19 | 36.43006 | 67.88047 | 37885 ft | 504 kts | 324° |
| 2026-04-22 08:19 | 36.49148 | 67.83838 | 37874 ft | 504 kts | 324° |
| 2026-04-22 08:20 | 36.55285 | 67.79626 | 37869 ft | 504 kts | 324° |
| 2026-04-22 08:20 | 36.61428 | 67.75401 | 37875 ft | 505 kts | 324° |
| 2026-04-22 08:21 | 36.67577 | 67.71168 | 37867 ft | 505 kts | 324° |
| 2026-04-22 08:21 | 36.73725 | 67.66930 | 37869 ft | 505 kts | 324° |
| 2026-04-22 08:22 | 36.79873 | 67.62703 | 37860 ft | 505 kts | 324° |
| 2026-04-22 08:22 | 36.86025 | 67.58467 | 37849 ft | 505 kts | 324° |
| 2026-04-22 08:23 | 36.92175 | 67.54224 | 37861 ft | 505 kts | 324° |
| 2026-04-22 08:23 | 36.98303 | 67.49986 | 37842 ft | 509 kts | 324° |
| 2026-04-22 08:24 | 37.04509 | 67.45686 | 37833 ft | 510 kts | 324° |
| 2026-04-22 08:24 | 37.10762 | 67.41349 | 37826 ft | 510 kts | 324° |
| 2026-04-22 08:25 | 37.16928 | 67.37064 | 37827 ft | 510 kts | 324° |
| 2026-04-22 08:25 | 37.23123 | 67.32723 | 37824 ft | 509 kts | 322° |
| 2026-04-22 08:26 | 37.29167 | 67.28128 | 37828 ft | 507 kts | 321° |
| 2026-04-22 08:26 | 37.35159 | 67.23450 | 37831 ft | 507 kts | 321° |
| 2026-04-22 08:27 | 37.41161 | 67.18800 | 37826 ft | 507 kts | 321° |
| 2026-04-22 08:27 | 37.47188 | 67.14160 | 37819 ft | 508 kts | 321° |
| 2026-04-22 08:28 | 37.53219 | 67.09522 | 37827 ft | 508 kts | 321° |
| 2026-04-22 08:28 | 37.59236 | 67.04887 | 37811 ft | 506 kts | 321° |
| 2026-04-22 08:29 | 37.65238 | 67.00252 | 37828 ft | 506 kts | 321° |
| 2026-04-22 08:29 | 37.71236 | 66.95608 | 37846 ft | 506 kts | 320° |
| 2026-04-22 08:30 | 37.77231 | 66.90958 | 37840 ft | 505 kts | 320° |
| 2026-04-22 08:30 | 37.83226 | 66.86298 | 37858 ft | 507 kts | 320° |
| 2026-04-22 08:31 | 37.89252 | 66.81603 | 37866 ft | 509 kts | 320° |
| 2026-04-22 08:32 | 37.98329 | 66.74519 | 37878 ft | 512 kts | 320° |
| 2026-04-22 08:32 | 38.04348 | 66.69816 | 37882 ft | 512 kts | 320° |
| 2026-04-22 08:33 | 38.10381 | 66.65032 | 37883 ft | 511 kts | 319° |
| 2026-04-22 08:33 | 38.16409 | 66.60230 | 37887 ft | 511 kts | 319° |
| 2026-04-22 08:34 | 38.22436 | 66.55426 | 37890 ft | 512 kts | 320° |
| 2026-04-22 08:34 | 38.28488 | 66.50597 | 37875 ft | 515 kts | 320° |
| 2026-04-22 08:35 | 38.34558 | 66.45751 | 37874 ft | 515 kts | 320° |
| 2026-04-22 08:35 | 38.40630 | 66.40895 | 37874 ft | 515 kts | 319° |
| 2026-04-22 08:36 | 38.46696 | 66.36030 | 37884 ft | 515 kts | 320° |
| 2026-04-22 08:36 | 38.52767 | 66.31152 | 37869 ft | 516 kts | 319° |
| 2026-04-22 08:37 | 38.58834 | 66.26265 | 37868 ft | 516 kts | 319° |
| 2026-04-22 08:37 | 38.64916 | 66.21381 | 37866 ft | 518 kts | 320° |
| 2026-04-22 08:38 | 38.71064 | 66.16529 | 37863 ft | 520 kts | 320° |
| 2026-04-22 08:38 | 38.77223 | 66.11679 | 37863 ft | 520 kts | 320° |
| 2026-04-22 08:39 | 38.83378 | 66.06811 | 37855 ft | 520 kts | 320° |
| 2026-04-22 08:39 | 38.89530 | 66.01925 | 37863 ft | 521 kts | 320° |
| 2026-04-22 08:40 | 38.95684 | 65.97025 | 37858 ft | 521 kts | 320° |
| 2026-04-22 08:40 | 39.01838 | 65.92116 | 37878 ft | 521 kts | 321° |
| 2026-04-22 08:41 | 39.07999 | 65.87192 | 37864 ft | 522 kts | 321° |
| 2026-04-22 08:41 | 39.14163 | 65.82255 | 37856 ft | 522 kts | 320° |
| 2026-04-22 08:42 | 39.20331 | 65.77303 | 37863 ft | 522 kts | 320° |
| 2026-04-22 08:42 | 39.26497 | 65.72343 | 37843 ft | 523 kts | 320° |
| 2026-04-22 08:43 | 39.32624 | 65.67404 | 37842 ft | 523 kts | 320° |
| 2026-04-22 08:43 | 39.38793 | 65.62421 | 37836 ft | 523 kts | 320° |
| 2026-04-22 08:44 | 39.44957 | 65.57433 | 37838 ft | 522 kts | 320° |
| 2026-04-22 08:44 | 39.51116 | 65.52437 | 37833 ft | 522 kts | 320° |
| 2026-04-22 08:45 | 39.57270 | 65.47434 | 37828 ft | 522 kts | 320° |
| 2026-04-22 08:45 | 39.63423 | 65.42421 | 37828 ft | 522 kts | 320° |
| 2026-04-22 08:46 | 39.69575 | 65.37398 | 37829 ft | 522 kts | 320° |
| 2026-04-22 08:46 | 39.75718 | 65.32373 | 37833 ft | 522 kts | 320° |
| 2026-04-22 08:47 | 39.81856 | 65.27341 | 37835 ft | 521 kts | 320° |
| 2026-04-22 08:47 | 39.87985 | 65.22305 | 37853 ft | 521 kts | 320° |
| 2026-04-22 08:48 | 39.94099 | 65.17271 | 37835 ft | 520 kts | 320° |
| 2026-04-22 08:48 | 40.00206 | 65.12232 | 37835 ft | 519 kts | 320° |
| 2026-04-22 08:49 | 40.06305 | 65.07187 | 37840 ft | 519 kts | 320° |
| 2026-04-22 08:49 | 40.12399 | 65.02137 | 37854 ft | 519 kts | 320° |
| 2026-04-22 08:50 | 40.18491 | 64.97078 | 37868 ft | 519 kts | 320° |
| 2026-04-22 08:50 | 40.24578 | 64.92012 | 37852 ft | 518 kts | 320° |
| 2026-04-22 08:51 | 40.30658 | 64.86941 | 37845 ft | 518 kts | 320° |
| 2026-04-22 08:51 | 40.36735 | 64.81861 | 37843 ft | 518 kts | 320° |
| 2026-04-22 08:52 | 40.42808 | 64.76773 | 37839 ft | 518 kts | 320° |
| 2026-04-22 08:52 | 40.48876 | 64.71679 | 37842 ft | 518 kts | 320° |
| 2026-04-22 08:53 | 40.54943 | 64.66574 | 37842 ft | 518 kts | 320° |
| 2026-04-22 08:53 | 40.61004 | 64.61464 | 37846 ft | 517 kts | 320° |
| 2026-04-22 08:54 | 40.67053 | 64.56352 | 37843 ft | 517 kts | 320° |
| 2026-04-22 08:54 | 40.73101 | 64.51230 | 37840 ft | 517 kts | 320° |
| 2026-04-22 08:55 | 40.79147 | 64.46099 | 37830 ft | 516 kts | 320° |
| 2026-04-22 08:55 | 40.85184 | 64.40964 | 37833 ft | 516 kts | 320° |
| 2026-04-22 08:56 | 40.91215 | 64.35822 | 37857 ft | 516 kts | 319° |
| 2026-04-22 08:56 | 40.97247 | 64.30668 | 37831 ft | 517 kts | 319° |
| 2026-04-22 08:57 | 41.03284 | 64.25498 | 37829 ft | 517 kts | 319° |
| 2026-04-22 08:57 | 41.09319 | 64.20320 | 37836 ft | 517 kts | 319° |
| 2026-04-22 08:58 | 41.15352 | 64.15130 | 37835 ft | 517 kts | 319° |
| 2026-04-22 08:58 | 41.21345 | 64.09965 | 37855 ft | 517 kts | 319° |
| 2026-04-22 08:59 | 41.27373 | 64.04757 | 37854 ft | 517 kts | 319° |
| 2026-04-22 08:59 | 41.33401 | 63.99538 | 37837 ft | 517 kts | 319° |
| 2026-04-22 09:00 | 41.39427 | 63.94309 | 37837 ft | 517 kts | 319° |
| 2026-04-22 09:00 | 41.45446 | 63.89081 | 37833 ft | 517 kts | 319° |
| 2026-04-22 09:01 | 41.51468 | 63.83838 | 37834 ft | 517 kts | 319° |
| 2026-04-22 09:01 | 41.57480 | 63.78592 | 37834 ft | 516 kts | 319° |
| 2026-04-22 09:02 | 41.63482 | 63.73342 | 37838 ft | 516 kts | 319° |
| 2026-04-22 09:02 | 41.69490 | 63.68076 | 37841 ft | 516 kts | 319° |
| 2026-04-22 09:03 | 41.75490 | 63.62805 | 37829 ft | 516 kts | 319° |
| 2026-04-22 09:03 | 41.81484 | 63.57527 | 37829 ft | 516 kts | 319° |
| 2026-04-22 09:04 | 41.87477 | 63.52238 | 37830 ft | 515 kts | 319° |
| 2026-04-22 09:04 | 41.92448 | 63.47842 | 37830 ft | 515 kts | 319° |
| 2026-04-22 09:05 | 41.98430 | 63.42540 | 37829 ft | 515 kts | 319° |
| 2026-04-22 09:05 | 42.04406 | 63.37231 | 37829 ft | 515 kts | 319° |
| 2026-04-22 09:06 | 42.10381 | 63.31912 | 37826 ft | 515 kts | 319° |
| 2026-04-22 09:06 | 42.16350 | 63.26586 | 37852 ft | 515 kts | 318° |
| 2026-04-22 09:07 | 42.22319 | 63.21247 | 37828 ft | 515 kts | 318° |
| 2026-04-22 09:07 | 42.28282 | 63.15901 | 37828 ft | 514 kts | 318° |
| 2026-04-22 09:08 | 42.34242 | 63.10546 | 37817 ft | 515 kts | 318° |
| 2026-04-22 09:08 | 42.40208 | 63.05172 | 37833 ft | 515 kts | 318° |
| 2026-04-22 09:09 | 42.46179 | 62.99791 | 37835 ft | 516 kts | 318° |
| 2026-04-22 09:09 | 42.52148 | 62.94385 | 37818 ft | 517 kts | 318° |
| 2026-04-22 09:10 | 42.58123 | 62.88961 | 37821 ft | 517 kts | 318° |
| 2026-04-22 09:10 | 42.64059 | 62.83563 | 37834 ft | 517 kts | 318° |
| 2026-04-22 09:11 | 42.70041 | 62.78111 | 37812 ft | 518 kts | 318° |
| 2026-04-22 09:11 | 42.76027 | 62.72645 | 37812 ft | 518 kts | 318° |
| 2026-04-22 09:12 | 42.82012 | 62.67166 | 37814 ft | 518 kts | 317° |
| 2026-04-22 09:12 | 42.87999 | 62.61671 | 37807 ft | 519 kts | 317° |
| 2026-04-22 09:13 | 42.93982 | 62.56167 | 37805 ft | 519 kts | 317° |
| 2026-04-22 09:13 | 42.99965 | 62.50651 | 37807 ft | 519 kts | 317° |
| 2026-04-22 09:14 | 43.05947 | 62.45121 | 37808 ft | 519 kts | 317° |
| 2026-04-22 09:14 | 43.11924 | 62.39582 | 37817 ft | 519 kts | 317° |
| 2026-04-22 09:15 | 43.17900 | 62.34032 | 37806 ft | 519 kts | 317° |
| 2026-04-22 09:15 | 43.23874 | 62.28470 | 37803 ft | 519 kts | 317° |
| 2026-04-22 09:16 | 43.29839 | 62.22904 | 37813 ft | 519 kts | 317° |
| 2026-04-22 09:16 | 43.35808 | 62.17319 | 37804 ft | 519 kts | 317° |
| 2026-04-22 09:17 | 43.41771 | 62.11727 | 37806 ft | 519 kts | 317° |
| 2026-04-22 09:17 | 43.48010 | 62.06596 | 37808 ft | 528 kts | 326° |
| 2026-04-22 09:18 | 43.54644 | 62.02175 | 37806 ft | 530 kts | 327° |
| 2026-04-22 09:18 | 43.61335 | 61.97874 | 37803 ft | 531 kts | 327° |
| 2026-04-22 09:19 | 43.68024 | 61.93574 | 37805 ft | 530 kts | 327° |
| 2026-04-22 09:19 | 43.74702 | 61.89247 | 37804 ft | 530 kts | 327° |
| 2026-04-22 09:20 | 43.81367 | 61.84906 | 37807 ft | 530 kts | 327° |
| 2026-04-22 09:20 | 43.87991 | 61.80580 | 37805 ft | 530 kts | 327° |
| 2026-04-22 09:21 | 43.94655 | 61.76218 | 37807 ft | 530 kts | 327° |
| 2026-04-22 09:21 | 44.01320 | 61.71845 | 37804 ft | 530 kts | 327° |
| 2026-04-22 09:22 | 44.07988 | 61.67460 | 37806 ft | 530 kts | 327° |
| 2026-04-22 09:22 | 44.14647 | 61.63069 | 37836 ft | 530 kts | 327° |
| 2026-04-22 09:23 | 44.21305 | 61.58681 | 37803 ft | 529 kts | 327° |
| 2026-04-22 09:23 | 44.27946 | 61.54286 | 37810 ft | 528 kts | 327° |
| 2026-04-22 09:24 | 44.34588 | 61.49879 | 37811 ft | 528 kts | 328° |
| 2026-04-22 09:24 | 44.41211 | 61.45476 | 37808 ft | 527 kts | 327° |
| 2026-04-22 09:25 | 44.47822 | 61.41070 | 37804 ft | 526 kts | 327° |
| 2026-04-22 09:25 | 44.54427 | 61.36656 | 37810 ft | 526 kts | 328° |
| 2026-04-22 09:26 | 44.61033 | 61.32232 | 37804 ft | 526 kts | 327° |
| 2026-04-22 09:26 | 44.67624 | 61.27806 | 37809 ft | 525 kts | 327° |
| 2026-04-22 09:27 | 44.74209 | 61.23373 | 37813 ft | 525 kts | 328° |
| 2026-04-22 09:27 | 44.80790 | 61.18930 | 37812 ft | 524 kts | 327° |
| 2026-04-22 09:28 | 44.87322 | 61.14510 | 37837 ft | 524 kts | 328° |
| 2026-04-22 09:28 | 44.93899 | 61.10048 | 37806 ft | 524 kts | 328° |
| 2026-04-22 09:29 | 45.00474 | 61.05576 | 37806 ft | 525 kts | 328° |
| 2026-04-22 09:29 | 45.07047 | 61.01094 | 37812 ft | 525 kts | 328° |
| 2026-04-22 09:30 | 45.13621 | 60.96600 | 37813 ft | 525 kts | 328° |
| 2026-04-22 09:30 | 45.20197 | 60.92094 | 37829 ft | 525 kts | 328° |
| 2026-04-22 09:31 | 45.26769 | 60.87578 | 37814 ft | 525 kts | 328° |
| 2026-04-22 09:31 | 45.33343 | 60.83048 | 37812 ft | 525 kts | 328° |
| 2026-04-22 09:32 | 45.39897 | 60.78456 | 37812 ft | 522 kts | 324° |
| 2026-04-22 09:32 | 45.45673 | 60.72460 | 37817 ft | 510 kts | 313° |
| 2026-04-22 09:33 | 45.50999 | 60.65798 | 37817 ft | 509 kts | 311° |
| 2026-04-22 09:33 | 45.56241 | 60.59019 | 37821 ft | 509 kts | 311° |
| 2026-04-22 09:34 | 45.61483 | 60.52225 | 37827 ft | 509 kts | 311° |
| 2026-04-22 09:34 | 45.66743 | 60.45424 | 37829 ft | 510 kts | 311° |
| 2026-04-22 09:35 | 45.74605 | 60.35254 | 37829 ft | 510 kts | 311° |
| 2026-04-22 09:35 | 45.79868 | 60.28423 | 37829 ft | 511 kts | 311° |
| 2026-04-22 09:36 | 45.85131 | 60.21572 | 37831 ft | 511 kts | 311° |
| 2026-04-22 09:36 | 45.90393 | 60.14705 | 37831 ft | 511 kts | 311° |
| 2026-04-22 09:37 | 45.95649 | 60.07825 | 37832 ft | 511 kts | 311° |
| 2026-04-22 09:37 | 46.00903 | 60.00930 | 37837 ft | 512 kts | 311° |
| 2026-04-22 09:38 | 46.06159 | 59.94015 | 37837 ft | 512 kts | 311° |
| 2026-04-22 09:38 | 46.11406 | 59.87091 | 37837 ft | 512 kts | 311° |
| 2026-04-22 09:39 | 46.16650 | 59.80154 | 37839 ft | 511 kts | 311° |
| 2026-04-22 09:39 | 46.21890 | 59.73204 | 37838 ft | 511 kts | 311° |
| 2026-04-22 09:40 | 46.27046 | 59.66143 | 37832 ft | 509 kts | 309° |
| 2026-04-22 09:40 | 46.32044 | 59.58883 | 37830 ft | 510 kts | 309° |
| 2026-04-22 09:41 | 46.37039 | 59.51605 | 37849 ft | 510 kts | 309° |
| 2026-04-22 09:41 | 46.42058 | 59.44342 | 37851 ft | 510 kts | 309° |
| 2026-04-22 09:42 | 46.47084 | 59.37080 | 37844 ft | 510 kts | 309° |
| 2026-04-22 09:42 | 46.52108 | 59.29807 | 37848 ft | 510 kts | 309° |
| 2026-04-22 09:43 | 46.57126 | 59.22520 | 37880 ft | 510 kts | 309° |
| 2026-04-22 09:43 | 46.62139 | 59.15220 | 37853 ft | 510 kts | 309° |
| 2026-04-22 09:44 | 46.67149 | 59.07901 | 37855 ft | 510 kts | 309° |
| 2026-04-22 09:44 | 46.72117 | 59.00623 | 37863 ft | 510 kts | 309° |
| 2026-04-22 09:45 | 46.77111 | 58.93286 | 37867 ft | 510 kts | 309° |
| 2026-04-22 09:45 | 46.82104 | 58.85932 | 37866 ft | 510 kts | 309° |
| 2026-04-22 09:46 | 46.87093 | 58.78564 | 37874 ft | 510 kts | 309° |
| 2026-04-22 09:46 | 46.92074 | 58.71184 | 37881 ft | 510 kts | 309° |
| 2026-04-22 09:47 | 46.97050 | 58.63794 | 37875 ft | 510 kts | 309° |
| 2026-04-22 09:47 | 47.02020 | 58.56391 | 37881 ft | 510 kts | 309° |
| 2026-04-22 09:48 | 47.06988 | 58.48970 | 37879 ft | 510 kts | 309° |
| 2026-04-22 09:48 | 47.11949 | 58.41538 | 37885 ft | 510 kts | 309° |
| 2026-04-22 09:49 | 47.16904 | 58.34093 | 37881 ft | 510 kts | 309° |
| 2026-04-22 09:49 | 47.21856 | 58.26632 | 37880 ft | 509 kts | 309° |
| 2026-04-22 09:50 | 47.26800 | 58.19163 | 37887 ft | 509 kts | 309° |
| 2026-04-22 09:50 | 47.31738 | 58.11687 | 37885 ft | 509 kts | 309° |
| 2026-04-22 09:51 | 47.36668 | 58.04195 | 37881 ft | 509 kts | 309° |
| 2026-04-22 09:51 | 47.41589 | 57.96683 | 37885 ft | 509 kts | 309° |
| 2026-04-22 09:52 | 47.46500 | 57.89169 | 37884 ft | 508 kts | 309° |
| 2026-04-22 09:52 | 47.51409 | 57.81641 | 37887 ft | 508 kts | 309° |
| 2026-04-22 09:53 | 47.55481 | 57.75380 | 37886 ft | 508 kts | 309° |
| 2026-04-22 09:53 | 47.60378 | 57.67831 | 37880 ft | 508 kts | 309° |
| 2026-04-22 09:54 | 47.65262 | 57.60285 | 37883 ft | 507 kts | 309° |
| 2026-04-22 09:54 | 47.70144 | 57.52717 | 37884 ft | 507 kts | 309° |
| 2026-04-22 09:55 | 47.75013 | 57.45138 | 37885 ft | 507 kts | 309° |
| 2026-04-22 09:55 | 47.79878 | 57.37547 | 37884 ft | 507 kts | 309° |
| 2026-04-22 09:56 | 47.84700 | 57.30004 | 37884 ft | 506 kts | 308° |
| 2026-04-22 09:56 | 47.89549 | 57.22398 | 37910 ft | 506 kts | 308° |
| 2026-04-22 09:57 | 47.94391 | 57.14780 | 37883 ft | 506 kts | 308° |
| 2026-04-22 09:57 | 47.99227 | 57.07149 | 37889 ft | 506 kts | 308° |
| 2026-04-22 09:58 | 48.04057 | 56.99506 | 37890 ft | 506 kts | 308° |
| 2026-04-22 09:58 | 48.08880 | 56.91851 | 37890 ft | 505 kts | 308° |
| 2026-04-22 09:59 | 48.13696 | 56.84184 | 37890 ft | 505 kts | 308° |
| 2026-04-22 09:59 | 48.18501 | 56.76514 | 37891 ft | 505 kts | 308° |
| 2026-04-22 10:00 | 48.23303 | 56.68824 | 37909 ft | 505 kts | 308° |
| 2026-04-22 10:00 | 48.28099 | 56.61121 | 37897 ft | 505 kts | 308° |
| 2026-04-22 10:01 | 48.32888 | 56.53409 | 37897 ft | 505 kts | 308° |
| 2026-04-22 10:01 | 48.37676 | 56.45681 | 37898 ft | 505 kts | 308° |
| 2026-04-22 10:02 | 48.42458 | 56.37946 | 37895 ft | 505 kts | 308° |
| 2026-04-22 10:02 | 48.47232 | 56.30199 | 37899 ft | 504 kts | 308° |
| 2026-04-22 10:03 | 48.52001 | 56.22438 | 37901 ft | 504 kts | 308° |
| 2026-04-22 10:03 | 48.56764 | 56.14666 | 37920 ft | 504 kts | 308° |
| 2026-04-22 10:04 | 48.61515 | 56.06883 | 37897 ft | 504 kts | 308° |
| 2026-04-22 10:04 | 48.66263 | 55.99082 | 37900 ft | 504 kts | 308° |
| 2026-04-22 10:05 | 48.71008 | 55.91272 | 37903 ft | 504 kts | 308° |
| 2026-04-22 10:05 | 48.75742 | 55.83448 | 37903 ft | 504 kts | 308° |
| 2026-04-22 10:06 | 48.80472 | 55.75600 | 37908 ft | 504 kts | 308° |
| 2026-04-22 10:06 | 48.85162 | 55.67798 | 37907 ft | 504 kts | 307° |
| 2026-04-22 10:07 | 48.89881 | 55.59935 | 37932 ft | 504 kts | 307° |
| 2026-04-22 10:07 | 48.94588 | 55.52042 | 37909 ft | 504 kts | 307° |
| 2026-04-22 10:08 | 48.99286 | 55.44143 | 37916 ft | 503 kts | 307° |
| 2026-04-22 10:08 | 49.03983 | 55.36226 | 37914 ft | 503 kts | 307° |
| 2026-04-22 10:09 | 49.08666 | 55.28313 | 37915 ft | 502 kts | 307° |
| 2026-04-22 10:09 | 49.13337 | 55.20394 | 37913 ft | 502 kts | 307° |
| 2026-04-22 10:10 | 49.18001 | 55.12472 | 37889 ft | 502 kts | 307° |
| 2026-04-22 10:10 | 49.22662 | 55.04528 | 37909 ft | 502 kts | 307° |
| 2026-04-22 10:11 | 49.27313 | 54.96566 | 37902 ft | 502 kts | 307° |
| 2026-04-22 10:11 | 49.31961 | 54.88589 | 37902 ft | 502 kts | 307° |
| 2026-04-22 10:12 | 49.36608 | 54.80592 | 37906 ft | 502 kts | 307° |
| 2026-04-22 10:12 | 49.41248 | 54.72584 | 37921 ft | 502 kts | 307° |
| 2026-04-22 10:13 | 49.45885 | 54.64554 | 37903 ft | 503 kts | 307° |
| 2026-04-22 10:13 | 49.50492 | 54.56554 | 37903 ft | 503 kts | 307° |
| 2026-04-22 10:14 | 49.55126 | 54.48482 | 37900 ft | 503 kts | 307° |
| 2026-04-22 10:14 | 49.59748 | 54.40404 | 37900 ft | 502 kts | 306° |
| 2026-04-22 10:15 | 49.64360 | 54.32322 | 37896 ft | 502 kts | 306° |
| 2026-04-22 10:15 | 49.68963 | 54.24228 | 37897 ft | 502 kts | 306° |
| 2026-04-22 10:16 | 49.73561 | 54.16116 | 37927 ft | 502 kts | 306° |
| 2026-04-22 10:16 | 49.78149 | 54.07997 | 37897 ft | 501 kts | 306° |
| 2026-04-22 10:17 | 49.82734 | 53.99859 | 37898 ft | 501 kts | 306° |
| 2026-04-22 10:17 | 49.87308 | 53.91715 | 37894 ft | 501 kts | 306° |
| 2026-04-22 10:18 | 49.91881 | 53.83552 | 37905 ft | 502 kts | 306° |
| 2026-04-22 10:18 | 49.96454 | 53.75357 | 37894 ft | 503 kts | 306° |
| 2026-04-22 10:19 | 50.01031 | 53.67124 | 37895 ft | 503 kts | 306° |
| 2026-04-22 10:19 | 50.05605 | 53.58876 | 37896 ft | 503 kts | 306° |
| 2026-04-22 10:20 | 50.10173 | 53.50610 | 37906 ft | 505 kts | 306° |
| 2026-04-22 10:20 | 50.14755 | 53.42295 | 37887 ft | 506 kts | 306° |
| 2026-04-22 10:21 | 50.19338 | 53.33951 | 37884 ft | 506 kts | 306° |
| 2026-04-22 10:21 | 50.23914 | 53.25596 | 37882 ft | 506 kts | 306° |
| 2026-04-22 10:22 | 50.28477 | 53.17236 | 37892 ft | 505 kts | 306° |
| 2026-04-22 10:22 | 50.32999 | 53.08922 | 37892 ft | 505 kts | 306° |
| 2026-04-22 10:23 | 50.37542 | 53.00543 | 37892 ft | 505 kts | 306° |
| 2026-04-22 10:23 | 50.42083 | 52.92140 | 37892 ft | 505 kts | 306° |
| 2026-04-22 10:24 | 50.46617 | 52.83725 | 37892 ft | 505 kts | 306° |
| 2026-04-22 10:24 | 50.51145 | 52.75293 | 37890 ft | 505 kts | 306° |
| 2026-04-22 10:25 | 50.55666 | 52.66844 | 37891 ft | 505 kts | 306° |
| 2026-04-22 10:25 | 50.60177 | 52.58382 | 37928 ft | 505 kts | 306° |
| 2026-04-22 10:26 | 50.64653 | 52.49875 | 37921 ft | 504 kts | 305° |
| 2026-04-22 10:26 | 50.69070 | 52.41287 | 37910 ft | 504 kts | 304° |
| 2026-04-22 10:27 | 50.73419 | 52.32619 | 37904 ft | 503 kts | 304° |
| 2026-04-22 10:27 | 50.77689 | 52.23868 | 37927 ft | 502 kts | 303° |
| 2026-04-22 10:28 | 50.81889 | 52.15046 | 37926 ft | 502 kts | 303° |
| 2026-04-22 10:28 | 50.86072 | 52.06221 | 37933 ft | 501 kts | 303° |
| 2026-04-22 10:29 | 50.90249 | 51.97386 | 37913 ft | 501 kts | 303° |
| 2026-04-22 10:29 | 50.94413 | 51.88531 | 37891 ft | 501 kts | 302° |
| 2026-04-22 10:30 | 50.98538 | 51.79617 | 37871 ft | 501 kts | 302° |
| 2026-04-22 10:30 | 51.02593 | 51.70641 | 37873 ft | 500 kts | 301° |
| 2026-04-22 10:31 | 51.06572 | 51.61586 | 37873 ft | 499 kts | 301° |
| 2026-04-22 10:31 | 51.10468 | 51.52446 | 37839 ft | 499 kts | 300° |
| 2026-04-22 10:32 | 51.14250 | 51.43279 | 37814 ft | 498 kts | 299° |
| 2026-04-22 10:32 | 51.17966 | 51.33966 | 37821 ft | 497 kts | 298° |
| 2026-04-22 10:33 | 51.21593 | 51.24586 | 37848 ft | 497 kts | 297° |
| 2026-04-22 10:33 | 51.25147 | 51.15128 | 37816 ft | 497 kts | 296° |
| 2026-04-22 10:34 | 51.28613 | 51.05585 | 37801 ft | 496 kts | 296° |
| 2026-04-22 10:34 | 51.31976 | 50.95956 | 37818 ft | 495 kts | 295° |
| 2026-04-22 10:35 | 51.35222 | 50.86251 | 37814 ft | 495 kts | 294° |
| 2026-04-22 10:35 | 51.38342 | 50.76442 | 37798 ft | 495 kts | 292° |
| 2026-04-22 10:36 | 51.41313 | 50.66521 | 37775 ft | 494 kts | 291° |
| 2026-04-22 10:36 | 51.43959 | 50.57100 | 37770 ft | 492 kts | 290° |
| 2026-04-22 10:37 | 51.47858 | 50.41895 | 37778 ft | 491 kts | 287° |
| 2026-04-22 10:38 | 51.50217 | 50.31637 | 37798 ft | 490 kts | 286° |
| 2026-04-22 10:38 | 51.52376 | 50.21279 | 37765 ft | 489 kts | 284° |
| 2026-04-22 10:39 | 51.54341 | 50.10817 | 37700 ft | 489 kts | 283° |
| 2026-04-22 10:39 | 51.56116 | 50.00288 | 37715 ft | 487 kts | 281° |
| 2026-04-22 10:40 | 51.57693 | 49.89783 | 37760 ft | 486 kts | 279° |
| 2026-04-22 10:40 | 51.59080 | 49.79154 | 37745 ft | 486 kts | 278° |
| 2026-04-22 10:41 | 51.60255 | 49.68437 | 37707 ft | 486 kts | 276° |
| 2026-04-22 10:41 | 51.61229 | 49.57681 | 37722 ft | 485 kts | 275° |
| 2026-04-22 10:42 | 51.62002 | 49.46901 | 37701 ft | 485 kts | 273° |
| 2026-04-22 10:42 | 51.62580 | 49.36087 | 37688 ft | 485 kts | 271° |
| 2026-04-22 10:43 | 51.62914 | 49.27092 | 37708 ft | 484 kts | 270° |
| 2026-04-22 10:43 | 51.63138 | 49.16266 | 37708 ft | 484 kts | 269° |
| 2026-04-22 10:44 | 51.63167 | 49.05418 | 37645 ft | 485 kts | 267° |
| 2026-04-22 10:44 | 51.63016 | 48.94571 | 37693 ft | 484 kts | 266° |
| 2026-04-22 10:45 | 51.62692 | 48.83772 | 37735 ft | 483 kts | 264° |
| 2026-04-22 10:45 | 51.62193 | 48.73000 | 37716 ft | 483 kts | 263° |
| 2026-04-22 10:46 | 51.61520 | 48.62239 | 37685 ft | 483 kts | 262° |
| 2026-04-22 10:46 | 51.60675 | 48.51523 | 37710 ft | 482 kts | 260° |
| 2026-04-22 10:47 | 51.59661 | 48.40873 | 37730 ft | 482 kts | 259° |
| 2026-04-22 10:47 | 51.58483 | 48.30257 | 37684 ft | 483 kts | 258° |
| 2026-04-22 10:48 | 51.57145 | 48.19678 | 37649 ft | 483 kts | 256° |
| 2026-04-22 10:48 | 51.55653 | 48.09168 | 37690 ft | 482 kts | 255° |
| 2026-04-22 10:49 | 51.54012 | 47.98740 | 37698 ft | 481 kts | 254° |
| 2026-04-22 10:49 | 51.52207 | 47.88385 | 37686 ft | 482 kts | 252° |
| 2026-04-22 10:50 | 51.50204 | 47.78116 | 37667 ft | 482 kts | 251° |